»·PEaware :: N132NP TKPN-TNCM

N132NP :: TKPN-TNCM

FLIGHT INFORMATION

Flight Status: Arrived
Operator: Privately registered:
United States
More flights under this callsign
Pilot: Jarrett L. (8209)
Aircraft: CESSNA 208 CARAVAN
(C208)
More flights by this aircraft type
Origin: TKPN Newcastle
Saint Kitts and Nevis
Destination: TNCM Princess Juliana Intl
Netherlands Antilles
More flights between these airports :: More routes between these airports
Route: OVISA1
File this flight plan on PilotEdge
Remarks:
Altitude:
(Current/Filed)
6,000ft
Speed:
(Current/Filed)
140kts
Departed: 29-Jul-17 02:40 PM
Arrived: 29-Jul-17 03:13 PM
Distance/Time
Traveled:
58nm/0:32
Distance/Time
To Go:
Arrived

Flight Plot

Page will automatically refresh every two minutes.

Flight plan parsing failed; only flown route is shown


Map Options




Map Legend


Flown Route
Filed Route
Departure Airport
Arrival Airport
Navaid (VOR, NDB)
Fix

Horizontal Profiles

Position Reports

Time Latitude Longitude Heading Altitude Ground
Speed
29-Jul-17 14:22 17.204795 -62.592301 88 38ft 0kts
29-Jul-17 14:23 17.204795 -62.592301 88 38ft 0kts
29-Jul-17 14:24 17.204795 -62.592301 88 38ft 0kts
29-Jul-17 14:25 17.204795 -62.592301 88 38ft 0kts
29-Jul-17 14:26 17.204795 -62.592301 88 38ft 0kts
29-Jul-17 14:27 17.204795 -62.592301 88 38ft 0kts
29-Jul-17 14:28 17.204795 -62.592301 88 38ft 0kts
29-Jul-17 14:29 17.204795 -62.592301 88 38ft 0kts
29-Jul-17 14:30 17.204795 -62.592301 88 38ft 0kts
29-Jul-17 14:31 17.204795 -62.592301 88 38ft 0kts
29-Jul-17 14:32 17.204795 -62.592301 88 38ft 0kts
29-Jul-17 14:33 17.204795 -62.592301 88 38ft 0kts
29-Jul-17 14:34 17.204795 -62.592301 88 38ft 0kts
29-Jul-17 14:35 17.204795 -62.592301 88 38ft 0kts
29-Jul-17 14:36 17.204795 -62.592301 88 38ft 0kts
29-Jul-17 14:37 17.204795 -62.592301 88 38ft 0kts
29-Jul-17 14:38 17.204795 -62.592301 88 38ft 0kts
29-Jul-17 14:39 17.204795 -62.592301 88 38ft 0kts
29-Jul-17 14:40 17.204795 -62.592301 88 38ft 0kts
29-Jul-17 14:41 17.204809 -62.592246 62 38ft 2kts
29-Jul-17 14:42 17.205657 -62.592437 83 36ft 0kts
29-Jul-17 14:43 17.205734 -62.574054 61 946ft 112kts
29-Jul-17 14:44 17.228515 -62.585914 291 2921ft 128kts
29-Jul-17 14:45 17.243694 -62.617687 311 4868ft 119kts
29-Jul-17 14:46 17.267354 -62.644507 320 6022ft 159kts
29-Jul-17 14:47 17.303422 -62.678814 321 6009ft 182kts
29-Jul-17 14:48 17.341507 -62.713729 322 6005ft 182kts
29-Jul-17 14:49 17.379702 -62.748531 322 5997ft 181kts
29-Jul-17 14:50 17.417657 -62.783114 322 5986ft 181kts
29-Jul-17 14:51 17.455626 -62.817733 321 5974ft 181kts
29-Jul-17 14:52 17.492582 -62.853269 319 5968ft 182kts
29-Jul-17 14:53 17.528007 -62.888878 319 5960ft 166kts
29-Jul-17 14:54 17.560259 -62.921219 319 5962ft 158kts
29-Jul-17 14:55 17.591840 -62.952928 319 5962ft 156kts
29-Jul-17 14:56 17.623059 -62.984370 318 5962ft 156kts
29-Jul-17 14:57 17.654265 -63.015827 320 5963ft 156kts
29-Jul-17 14:58 17.685647 -63.047547 319 5675ft 158kts
29-Jul-17 14:59 17.716860 -63.079176 319 4922ft 155kts
29-Jul-17 15:00 17.747774 -63.110377 318 4174ft 155kts
29-Jul-17 15:01 17.778179 -63.141117 319 3421ft 147kts
29-Jul-17 15:02 17.807461 -63.170828 318 2671ft 145kts
29-Jul-17 15:03 17.836380 -63.199989 317 1925ft 146kts
29-Jul-17 15:04 17.864823 -63.228841 318 1459ft 130kts
29-Jul-17 15:05 17.889594 -63.253799 318 1471ft 133kts
29-Jul-17 15:06 17.919998 -63.279621 350 1464ft 142kts
29-Jul-17 15:07 17.959069 -63.286252 354 1464ft 142kts
29-Jul-17 15:08 17.996201 -63.292176 355 1460ft 125kts
29-Jul-17 15:09 18.016429 -63.273281 78 1463ft 111kts
29-Jul-17 15:10 18.021578 -63.243375 83 1462ft 110kts
29-Jul-17 15:11 18.025703 -63.215425 83 1460ft 102kts
29-Jul-17 15:12 18.029699 -63.187929 82 1374ft 87kts
29-Jul-17 15:13 18.033154 -63.163111 84 1021ft 87kts
29-Jul-17 15:14 18.036043 -63.141574 80 488ft 71kts
29-Jul-17 15:15 18.038216 -63.128336 79 194ft 69kts
29-Jul-17 15:16 18.041354 -63.112566 42 15ft 28kts
29-Jul-17 15:17 18.042128 -63.111076 3 15ft 0kts

Navigation Log

Ident Type
Flight plan parsing failed, navigation log unavailable